sensor_id;sensor_type;location;lat;lon;timestamp;P1;durP1;ratioP1;P2;durP2;ratioP2
52396;SDS011;38322;53.108;6.308;2023-02-23T06:03:16;50.33;;;25.33;;
52396;SDS011;38322;53.108;6.308;2023-02-23T06:05:48;54.90;;;28.33;;
52396;SDS011;38322;53.108;6.308;2023-02-23T06:08:17;58.25;;;30.10;;
52396;SDS011;38322;53.108;6.308;2023-02-23T06:10:43;54.80;;;27.55;;
52396;SDS011;38322;53.108;6.308;2023-02-23T06:13:09;55.90;;;28.65;;
52396;SDS011;38322;53.108;6.308;2023-02-23T06:15:35;59.25;;;28.85;;
52396;SDS011;38322;53.108;6.308;2023-02-23T06:18:01;53.33;;;29.35;;
52396;SDS011;38322;53.108;6.308;2023-02-23T06:20:27;56.78;;;29.95;;
52396;SDS011;38322;53.108;6.308;2023-02-23T06:22:53;59.40;;;28.80;;
52396;SDS011;38322;53.108;6.308;2023-02-23T06:25:19;53.75;;;29.83;;
52396;SDS011;38322;53.108;6.308;2023-02-23T06:27:45;60.00;;;29.17;;
52396;SDS011;38322;53.108;6.308;2023-02-23T06:30:11;56.00;;;29.92;;
52396;SDS011;38322;53.108;6.308;2023-02-23T06:32:37;49.90;;;27.85;;
52396;SDS011;38322;53.108;6.308;2023-02-23T06:35:04;49.35;;;26.92;;
52396;SDS011;38322;53.108;6.308;2023-02-23T06:37:31;52.78;;;27.45;;
52396;SDS011;38322;53.108;6.308;2023-02-23T06:39:57;51.15;;;29.08;;
52396;SDS011;38322;53.108;6.308;2023-02-23T06:42:24;46.15;;;25.80;;
52396;SDS011;38322;53.108;6.308;2023-02-23T06:44:49;51.45;;;27.70;;
52396;SDS011;38322;53.108;6.308;2023-02-23T06:47:15;57.33;;;28.00;;
52396;SDS011;38322;53.108;6.308;2023-02-23T06:49:41;54.17;;;29.17;;
52396;SDS011;38322;53.108;6.308;2023-02-23T06:52:07;49.63;;;27.13;;
52396;SDS011;38322;53.108;6.308;2023-02-23T06:54:34;49.65;;;26.85;;
52396;SDS011;38322;53.108;6.308;2023-02-23T06:57:02;50.55;;;26.10;;
52396;SDS011;38322;53.108;6.308;2023-02-23T06:59:28;57.17;;;28.52;;
52396;SDS011;38322;53.108;6.308;2023-02-23T07:01:54;50.42;;;27.33;;
52396;SDS011;38322;53.108;6.308;2023-02-23T07:04:20;52.33;;;25.98;;
52396;SDS011;38322;53.108;6.308;2023-02-23T07:06:47;55.05;;;27.60;;
52396;SDS011;38322;53.108;6.308;2023-02-23T07:09:13;49.90;;;25.55;;
52396;SDS011;38322;53.108;6.308;2023-02-23T07:11:40;47.03;;;27.73;;
52396;SDS011;38322;53.108;6.308;2023-02-23T07:14:09;45.75;;;26.70;;
52396;SDS011;38322;53.108;6.308;2023-02-23T07:16:35;47.35;;;26.02;;
52396;SDS011;38322;53.108;6.308;2023-02-23T07:19:01;56.13;;;28.25;;
52396;SDS011;38322;53.108;6.308;2023-02-23T07:21:28;44.63;;;24.73;;
52396;SDS011;38322;53.108;6.308;2023-02-23T07:23:56;50.65;;;26.13;;
52396;SDS011;38322;53.108;6.308;2023-02-23T07:26:22;45.72;;;26.15;;
52396;SDS011;38322;53.108;6.308;2023-02-23T07:28:49;53.65;;;26.73;;
52396;SDS011;38322;53.108;6.308;2023-02-23T07:31:15;45.90;;;25.40;;
52396;SDS011;38322;53.108;6.308;2023-02-23T07:33:41;43.97;;;26.77;;
52396;SDS011;38322;53.108;6.308;2023-02-23T07:36:07;55.75;;;28.35;;
52396;SDS011;38322;53.108;6.308;2023-02-23T07:38:34;46.55;;;26.92;;
52396;SDS011;38322;53.108;6.308;2023-02-23T07:41:00;48.90;;;26.10;;
52396;SDS011;38322;53.108;6.308;2023-02-23T07:43:27;43.67;;;24.92;;
52396;SDS011;38322;53.108;6.308;2023-02-23T07:45:53;43.97;;;25.67;;
52396;SDS011;38322;53.108;6.308;2023-02-23T07:48:19;49.15;;;27.08;;
52396;SDS011;38322;53.108;6.308;2023-02-23T07:50:45;48.67;;;26.50;;
52396;SDS011;38322;53.108;6.308;2023-02-23T07:53:11;50.08;;;27.35;;
52396;SDS011;38322;53.108;6.308;2023-02-23T07:55:38;55.10;;;27.00;;
52396;SDS011;38322;53.108;6.308;2023-02-23T07:58:04;45.58;;;25.90;;
52396;SDS011;38322;53.108;6.308;2023-02-23T08:00:31;55.35;;;28.02;;
52396;SDS011;38322;53.108;6.308;2023-02-23T08:02:58;48.30;;;25.52;;
52396;SDS011;38322;53.108;6.308;2023-02-23T08:05:25;43.72;;;23.65;;
52396;SDS011;38322;53.108;6.308;2023-02-23T08:07:52;49.92;;;24.83;;
52396;SDS011;38322;53.108;6.308;2023-02-23T08:10:20;54.00;;;27.55;;
52396;SDS011;38322;53.108;6.308;2023-02-23T08:12:46;44.92;;;25.67;;
52396;SDS011;38322;53.108;6.308;2023-02-23T08:15:12;56.90;;;28.50;;
52396;SDS011;38322;53.108;6.308;2023-02-23T08:17:38;47.58;;;27.27;;
52396;SDS011;38322;53.108;6.308;2023-02-23T08:20:05;52.58;;;29.00;;
52396;SDS011;38322;53.108;6.308;2023-02-23T08:22:32;55.97;;;28.20;;
52396;SDS011;38322;53.108;6.308;2023-02-23T08:24:58;46.33;;;25.27;;
52396;SDS011;38322;53.108;6.308;2023-02-23T08:27:24;48.35;;;24.98;;
52396;SDS011;38322;53.108;6.308;2023-02-23T08:29:50;52.78;;;25.38;;
52396;SDS011;38322;53.108;6.308;2023-02-23T08:32:19;54.30;;;30.23;;
52396;SDS011;38322;53.108;6.308;2023-02-23T08:34:45;48.97;;;26.00;;
52396;SDS011;38322;53.108;6.308;2023-02-23T08:37:11;46.78;;;24.80;;
52396;SDS011;38322;53.108;6.308;2023-02-23T08:39:36;50.55;;;26.42;;
52396;SDS011;38322;53.108;6.308;2023-02-23T08:42:03;43.70;;;25.27;;
52396;SDS011;38322;53.108;6.308;2023-02-23T08:44:29;47.53;;;27.25;;
52396;SDS011;38322;53.108;6.308;2023-02-23T08:46:55;46.33;;;26.88;;
52396;SDS011;38322;53.108;6.308;2023-02-23T08:49:22;52.72;;;25.23;;
52396;SDS011;38322;53.108;6.308;2023-02-23T08:51:49;48.88;;;26.02;;
52396;SDS011;38322;53.108;6.308;2023-02-23T08:54:16;49.70;;;27.33;;
52396;SDS011;38322;53.108;6.308;2023-02-23T08:56:42;48.03;;;24.77;;
52396;SDS011;38322;53.108;6.308;2023-02-23T08:59:09;47.17;;;26.55;;
52396;SDS011;38322;53.108;6.308;2023-02-23T09:01:36;46.03;;;26.95;;
52396;SDS011;38322;53.108;6.308;2023-02-23T09:04:03;42.67;;;24.05;;
52396;SDS011;38322;53.108;6.308;2023-02-23T09:06:29;43.95;;;23.88;;
52396;SDS011;38322;53.108;6.308;2023-02-23T09:08:55;46.10;;;26.00;;
52396;SDS011;38322;53.108;6.308;2023-02-23T09:11:22;46.28;;;25.15;;
52396;SDS011;38322;53.108;6.308;2023-02-23T09:13:48;40.38;;;24.35;;
52396;SDS011;38322;53.108;6.308;2023-02-23T09:16:14;44.65;;;23.98;;
52396;SDS011;38322;53.108;6.308;2023-02-23T09:18:40;48.53;;;27.48;;
52396;SDS011;38322;53.108;6.308;2023-02-23T09:21:08;43.15;;;26.77;;
52396;SDS011;38322;53.108;6.308;2023-02-23T09:23:42;45.80;;;25.52;;
52396;SDS011;38322;53.108;6.308;2023-02-23T09:26:09;42.60;;;23.25;;
52396;SDS011;38322;53.108;6.308;2023-02-23T09:28:35;45.03;;;24.23;;
52396;SDS011;38322;53.108;6.308;2023-02-23T09:31:04;44.08;;;24.25;;
52396;SDS011;38322;53.108;6.308;2023-02-23T09:33:33;38.55;;;22.20;;
52396;SDS011;38322;53.108;6.308;2023-02-23T09:35:59;46.25;;;24.08;;
52396;SDS011;38322;53.108;6.308;2023-02-23T09:38:28;46.78;;;23.42;;
52396;SDS011;38322;53.108;6.308;2023-02-23T09:40:54;47.00;;;24.45;;
52396;SDS011;38322;53.108;6.308;2023-02-23T09:43:25;46.42;;;27.13;;
52396;SDS011;38322;53.108;6.308;2023-02-23T09:48:33;41.95;;;24.20;;
52396;SDS011;38322;53.108;6.308;2023-02-23T09:50:59;40.22;;;24.08;;
52396;SDS011;38322;53.108;6.308;2023-02-23T09:53:32;39.55;;;24.88;;
52396;SDS011;38322;53.108;6.308;2023-02-23T09:56:04;40.78;;;24.98;;
52396;SDS011;38322;53.108;6.308;2023-02-23T09:58:36;37.72;;;24.40;;
52396;SDS011;38322;53.108;6.308;2023-02-23T10:01:19;50.28;;;25.17;;
52396;SDS011;38322;53.108;6.308;2023-02-23T10:19:59;52.78;;;26.00;;
52396;SDS011;38322;53.108;6.308;2023-02-23T10:22:48;46.75;;;24.35;;
52396;SDS011;38322;53.108;6.308;2023-02-23T10:25:17;54.38;;;29.63;;
52396;SDS011;38322;53.108;6.308;2023-02-23T10:27:48;48.03;;;26.80;;
52396;SDS011;38322;53.108;6.308;2023-02-23T10:30:17;46.78;;;28.15;;
52396;SDS011;38322;53.108;6.308;2023-02-23T10:33:04;52.95;;;29.05;;
52396;SDS011;38322;53.108;6.308;2023-02-23T10:35:35;59.78;;;28.42;;
52396;SDS011;38322;53.108;6.308;2023-02-23T10:38:02;60.10;;;28.80;;
52396;SDS011;38322;53.108;6.308;2023-02-23T10:40:29;61.85;;;30.85;;
52396;SDS011;38322;53.108;6.308;2023-02-23T10:42:57;62.53;;;30.65;;
52396;SDS011;38322;53.108;6.308;2023-02-23T10:45:26;62.92;;;28.08;;
52396;SDS011;38322;53.108;6.308;2023-02-23T10:47:59;62.53;;;30.92;;
52396;SDS011;38322;53.108;6.308;2023-02-23T10:50:29;72.75;;;34.15;;
52396;SDS011;38322;53.108;6.308;2023-02-23T10:52:59;73.32;;;33.90;;
52396;SDS011;38322;53.108;6.308;2023-02-23T10:55:40;65.32;;;30.92;;
52396;SDS011;38322;53.108;6.308;2023-02-23T11:00:52;67.68;;;31.60;;
52396;SDS011;38322;53.108;6.308;2023-02-23T11:03:23;69.57;;;32.13;;
52396;SDS011;38322;53.108;6.308;2023-02-23T11:05:53;70.03;;;31.20;;
52396;SDS011;38322;53.108;6.308;2023-02-23T11:08:21;71.25;;;32.40;;
52396;SDS011;38322;53.108;6.308;2023-02-23T11:13:33;64.63;;;27.98;;
52396;SDS011;38322;53.108;6.308;2023-02-23T11:16:00;69.38;;;29.33;;
52396;SDS011;38322;53.108;6.308;2023-02-23T11:18:29;63.80;;;28.40;;
52396;SDS011;38322;53.108;6.308;2023-02-23T11:20:55;71.95;;;28.15;;
52396;SDS011;38322;53.108;6.308;2023-02-23T11:23:24;76.88;;;30.13;;
52396;SDS011;38322;53.108;6.308;2023-02-23T11:25:54;78.05;;;28.27;;
52396;SDS011;38322;53.108;6.308;2023-02-23T11:28:27;62.42;;;26.98;;
52396;SDS011;38322;53.108;6.308;2023-02-23T11:30:55;64.10;;;26.88;;
52396;SDS011;38322;53.108;6.308;2023-02-23T11:33:26;65.13;;;24.05;;
52396;SDS011;38322;53.108;6.308;2023-02-23T11:35:57;58.42;;;23.98;;
52396;SDS011;38322;53.108;6.308;2023-02-23T11:38:26;64.80;;;27.27;;
52396;SDS011;38322;53.108;6.308;2023-02-23T11:40:58;65.20;;;27.80;;
52396;SDS011;38322;53.108;6.308;2023-02-23T11:43:26;50.35;;;22.10;;
52396;SDS011;38322;53.108;6.308;2023-02-23T11:45:53;72.63;;;25.60;;
52396;SDS011;38322;53.108;6.308;2023-02-23T11:48:24;67.50;;;28.75;;
52396;SDS011;38322;53.108;6.308;2023-02-23T11:50:53;67.82;;;26.67;;
52396;SDS011;38322;53.108;6.308;2023-02-23T11:53:22;68.68;;;30.55;;
52396;SDS011;38322;53.108;6.308;2023-02-23T11:55:54;73.85;;;29.63;;
52396;SDS011;38322;53.108;6.308;2023-02-23T11:58:33;73.05;;;27.40;;
52396;SDS011;38322;53.108;6.308;2023-02-23T12:01:03;75.25;;;31.25;;
52396;SDS011;38322;53.108;6.308;2023-02-23T12:03:36;75.22;;;30.52;;
52396;SDS011;38322;53.108;6.308;2023-02-23T12:06:09;79.40;;;30.65;;
52396;SDS011;38322;53.108;6.308;2023-02-23T12:08:38;81.15;;;33.75;;
52396;SDS011;38322;53.108;6.308;2023-02-23T12:11:12;80.03;;;32.88;;
52396;SDS011;38322;53.108;6.308;2023-02-23T12:13:45;86.15;;;30.38;;
52396;SDS011;38322;53.108;6.308;2023-02-23T12:16:19;90.75;;;33.97;;
52396;SDS011;38322;53.108;6.308;2023-02-23T12:18:58;87.22;;;35.30;;
52396;SDS011;38322;53.108;6.308;2023-02-23T12:21:38;82.18;;;33.78;;
52396;SDS011;38322;53.108;6.308;2023-02-23T12:26:35;93.65;;;34.63;;
52396;SDS011;38322;53.108;6.308;2023-02-23T12:29:17;95.00;;;38.67;;
52396;SDS011;38322;53.108;6.308;2023-02-23T12:32:03;92.88;;;39.55;;
52396;SDS011;38322;53.108;6.308;2023-02-23T12:34:43;87.85;;;33.33;;
52396;SDS011;38322;53.108;6.308;2023-02-23T12:39:52;99.40;;;37.13;;
52396;SDS011;38322;53.108;6.308;2023-02-23T12:42:26;115.57;;;39.75;;
52396;SDS011;38322;53.108;6.308;2023-02-23T12:45:04;99.03;;;41.15;;
52396;SDS011;38322;53.108;6.308;2023-02-23T12:47:34;109.00;;;42.20;;
52396;SDS011;38322;53.108;6.308;2023-02-23T12:52:57;99.32;;;38.97;;
52396;SDS011;38322;53.108;6.308;2023-02-23T12:55:32;97.47;;;36.17;;
52396;SDS011;38322;53.108;6.308;2023-02-23T12:58:07;85.25;;;32.75;;
52396;SDS011;38322;53.108;6.308;2023-02-23T13:03:17;72.13;;;24.25;;
52396;SDS011;38322;53.108;6.308;2023-02-23T13:05:54;18.90;;;5.78;;
52396;SDS011;38322;53.108;6.308;2023-02-23T13:11:24;13.88;;;2.80;;
52396;SDS011;38322;53.108;6.308;2023-02-23T13:14:17;13.50;;;2.80;;
52396;SDS011;38322;53.108;6.308;2023-02-23T13:19:22;18.33;;;2.70;;
52396;SDS011;38322;53.108;6.308;2023-02-23T13:22:21;15.02;;;4.28;;
52396;SDS011;38322;53.108;6.308;2023-02-23T13:27:21;19.33;;;3.58;;
52396;SDS011;38322;53.108;6.308;2023-02-23T13:29:52;23.20;;;4.57;;
52396;SDS011;38322;53.108;6.308;2023-02-23T13:32:20;29.65;;;7.05;;
52396;SDS011;38322;53.108;6.308;2023-02-23T13:37:47;29.55;;;7.32;;
52396;SDS011;38322;53.108;6.308;2023-02-23T13:45:23;30.10;;;6.80;;
52396;SDS011;38322;53.108;6.308;2023-02-23T13:48:01;30.70;;;5.50;;
52396;SDS011;38322;53.108;6.308;2023-02-23T13:53:46;28.00;;;6.68;;
52396;SDS011;38322;53.108;6.308;2023-02-23T13:56:35;28.63;;;5.47;;
52396;SDS011;38322;53.108;6.308;2023-02-23T13:59:08;41.05;;;8.68;;
52396;SDS011;38322;53.108;6.308;2023-02-23T14:01:43;30.42;;;7.25;;
52396;SDS011;38322;53.108;6.308;2023-02-23T14:04:13;33.88;;;5.93;;
52396;SDS011;38322;53.108;6.308;2023-02-23T14:06:51;46.53;;;9.35;;
52396;SDS011;38322;53.108;6.308;2023-02-23T14:09:20;30.20;;;7.82;;
52396;SDS011;38322;53.108;6.308;2023-02-23T14:11:49;35.47;;;6.45;;
52396;SDS011;38322;53.108;6.308;2023-02-23T14:19:41;42.63;;;5.78;;
52396;SDS011;38322;53.108;6.308;2023-02-23T14:22:08;33.25;;;8.90;;
52396;SDS011;38322;53.108;6.308;2023-02-23T14:24:43;25.00;;;7.43;;
52396;SDS011;38322;53.108;6.308;2023-02-23T14:29:39;38.78;;;5.63;;
52396;SDS011;38322;53.108;6.308;2023-02-23T14:34:42;29.17;;;5.20;;
52396;SDS011;38322;53.108;6.308;2023-02-23T14:37:25;33.28;;;5.70;;
52396;SDS011;38322;53.108;6.308;2023-02-23T14:39:59;22.30;;;3.13;;
52396;SDS011;38322;53.108;6.308;2023-02-23T14:42:31;30.45;;;7.20;;
52396;SDS011;38322;53.108;6.308;2023-02-23T14:44:57;31.92;;;8.55;;
52396;SDS011;38322;53.108;6.308;2023-02-23T14:50:05;24.52;;;6.15;;
52396;SDS011;38322;53.108;6.308;2023-02-23T14:52:42;25.25;;;4.97;;
52396;SDS011;38322;53.108;6.308;2023-02-23T14:57:35;42.88;;;7.55;;
52396;SDS011;38322;53.108;6.308;2023-02-23T15:00:08;18.90;;;3.97;;
52396;SDS011;38322;53.108;6.308;2023-02-23T15:02:55;25.60;;;5.13;;
52396;SDS011;38322;53.108;6.308;2023-02-23T15:05:22;29.63;;;5.32;;
52396;SDS011;38322;53.108;6.308;2023-02-23T15:07:50;24.45;;;5.38;;
52396;SDS011;38322;53.108;6.308;2023-02-23T15:10:24;36.08;;;7.40;;
52396;SDS011;38322;53.108;6.308;2023-02-23T15:12:54;27.88;;;5.07;;
52396;SDS011;38322;53.108;6.308;2023-02-23T15:15:22;42.10;;;8.63;;
52396;SDS011;38322;53.108;6.308;2023-02-23T15:17:51;27.13;;;8.00;;
52396;SDS011;38322;53.108;6.308;2023-02-23T15:20:20;25.05;;;5.30;;
52396;SDS011;38322;53.108;6.308;2023-02-23T15:22:54;17.73;;;2.75;;
52396;SDS011;38322;53.108;6.308;2023-02-23T15:25:23;23.30;;;3.90;;
52396;SDS011;38322;53.108;6.308;2023-02-23T15:27:51;27.67;;;5.10;;
52396;SDS011;38322;53.108;6.308;2023-02-23T15:32:47;24.27;;;4.38;;
52396;SDS011;38322;53.108;6.308;2023-02-23T15:35:13;15.60;;;3.58;;
52396;SDS011;38322;53.108;6.308;2023-02-23T15:37:44;18.10;;;3.55;;
52396;SDS011;38322;53.108;6.308;2023-02-23T15:40:14;16.50;;;4.43;;
52396;SDS011;38322;53.108;6.308;2023-02-23T15:42:44;23.15;;;6.03;;
52396;SDS011;38322;53.108;6.308;2023-02-23T15:45:26;26.02;;;5.38;;
52396;SDS011;38322;53.108;6.308;2023-02-23T15:47:56;24.58;;;5.43;;
52396;SDS011;38322;53.108;6.308;2023-02-23T15:50:30;24.83;;;5.40;;
52396;SDS011;38322;53.108;6.308;2023-02-23T15:55:29;16.83;;;3.50;;
52396;SDS011;38322;53.108;6.308;2023-02-23T15:58:00;23.92;;;3.63;;
52396;SDS011;38322;53.108;6.308;2023-02-23T16:00:36;17.85;;;3.58;;
52396;SDS011;38322;53.108;6.308;2023-02-23T16:03:05;23.25;;;3.83;;
52396;SDS011;38322;53.108;6.308;2023-02-23T16:05:33;11.30;;;4.03;;
52396;SDS011;38322;53.108;6.308;2023-02-23T16:08:18;32.70;;;3.50;;
52396;SDS011;38322;53.108;6.308;2023-02-23T16:10:48;14.52;;;2.10;;
52396;SDS011;38322;53.108;6.308;2023-02-23T16:13:20;22.23;;;3.85;;
52396;SDS011;38322;53.108;6.308;2023-02-23T16:15:47;23.15;;;3.70;;
52396;SDS011;38322;53.108;6.308;2023-02-23T16:18:16;15.50;;;3.80;;
52396;SDS011;38322;53.108;6.308;2023-02-23T16:20:45;23.08;;;3.30;;
52396;SDS011;38322;53.108;6.308;2023-02-23T16:23:24;25.30;;;4.20;;
52396;SDS011;38322;53.108;6.308;2023-02-23T16:26:07;17.75;;;3.38;;
52396;SDS011;38322;53.108;6.308;2023-02-23T16:28:34;29.70;;;4.97;;
52396;SDS011;38322;53.108;6.308;2023-02-23T16:31:06;13.63;;;2.67;;
52396;SDS011;38322;53.108;6.308;2023-02-23T16:38:37;18.67;;;3.33;;
52396;SDS011;38322;53.108;6.308;2023-02-23T16:41:18;15.63;;;3.73;;
52396;SDS011;38322;53.108;6.308;2023-02-23T16:43:46;20.90;;;3.13;;
52396;SDS011;38322;53.108;6.308;2023-02-23T16:46:14;15.98;;;4.03;;
52396;SDS011;38322;53.108;6.308;2023-02-23T16:48:41;17.92;;;3.33;;
52396;SDS011;38322;53.108;6.308;2023-02-23T16:51:10;16.70;;;3.58;;
52396;SDS011;38322;53.108;6.308;2023-02-23T16:53:38;6.07;;;2.25;;
52396;SDS011;38322;53.108;6.308;2023-02-23T16:56:05;17.08;;;3.13;;
52396;SDS011;38322;53.108;6.308;2023-02-23T16:58:37;23.52;;;3.95;;
52396;SDS011;38322;53.108;6.308;2023-02-23T17:01:05;12.10;;;2.92;;
52396;SDS011;38322;53.108;6.308;2023-02-23T17:03:31;19.70;;;3.72;;
52396;SDS011;38322;53.108;6.308;2023-02-23T17:05:57;20.50;;;2.67;;
52396;SDS011;38322;53.108;6.308;2023-02-23T17:08:26;22.80;;;2.58;;
52396;SDS011;38322;53.108;6.308;2023-02-23T17:10:52;22.25;;;3.72;;
52396;SDS011;38322;53.108;6.308;2023-02-23T17:13:21;17.80;;;2.53;;
52396;SDS011;38322;53.108;6.308;2023-02-23T17:15:49;15.65;;;3.22;;
52396;SDS011;38322;53.108;6.308;2023-02-23T17:18:18;21.58;;;3.35;;
52396;SDS011;38322;53.108;6.308;2023-02-23T17:20:47;29.67;;;5.53;;
52396;SDS011;38322;53.108;6.308;2023-02-23T17:23:14;21.60;;;2.70;;
52396;SDS011;38322;53.108;6.308;2023-02-23T17:25:40;18.88;;;2.42;;
52396;SDS011;38322;53.108;6.308;2023-02-23T17:28:07;8.73;;;2.30;;
52396;SDS011;38322;53.108;6.308;2023-02-23T17:30:33;13.90;;;2.35;;
52396;SDS011;38322;53.108;6.308;2023-02-23T17:33:03;9.40;;;1.67;;
52396;SDS011;38322;53.108;6.308;2023-02-23T17:35:29;22.60;;;1.88;;
52396;SDS011;38322;53.108;6.308;2023-02-23T17:37:58;19.73;;;1.77;;
52396;SDS011;38322;53.108;6.308;2023-02-23T17:40:25;11.32;;;2.70;;
52396;SDS011;38322;53.108;6.308;2023-02-23T17:42:54;27.88;;;3.13;;
52396;SDS011;38322;53.108;6.308;2023-02-23T17:45:21;14.20;;;3.42;;
52396;SDS011;38322;53.108;6.308;2023-02-23T17:47:47;15.63;;;2.17;;
52396;SDS011;38322;53.108;6.308;2023-02-23T17:50:13;14.65;;;2.22;;
52396;SDS011;38322;53.108;6.308;2023-02-23T17:52:39;13.82;;;3.42;;
52396;SDS011;38322;53.108;6.308;2023-02-23T17:55:05;11.77;;;2.20;;
52396;SDS011;38322;53.108;6.308;2023-02-23T17:57:32;14.38;;;3.42;;
52396;SDS011;38322;53.108;6.308;2023-02-23T17:59:58;16.20;;;2.85;;
52396;SDS011;38322;53.108;6.308;2023-02-23T18:02:24;21.77;;;4.13;;
52396;SDS011;38322;53.108;6.308;2023-02-23T18:04:50;14.25;;;2.45;;
52396;SDS011;38322;53.108;6.308;2023-02-23T18:07:17;11.90;;;2.25;;
52396;SDS011;38322;53.108;6.308;2023-02-23T18:09:44;12.65;;;2.25;;
52396;SDS011;38322;53.108;6.308;2023-02-23T18:12:14;18.63;;;2.97;;
52396;SDS011;38322;53.108;6.308;2023-02-23T18:14:41;11.10;;;3.03;;
52396;SDS011;38322;53.108;6.308;2023-02-23T18:17:07;13.75;;;2.67;;
52396;SDS011;38322;53.108;6.308;2023-02-23T18:19:33;17.50;;;3.50;;
52396;SDS011;38322;53.108;6.308;2023-02-23T18:21:59;15.63;;;3.42;;
52396;SDS011;38322;53.108;6.308;2023-02-23T18:24:25;13.00;;;2.25;;
52396;SDS011;38322;53.108;6.308;2023-02-23T18:26:52;10.85;;;2.05;;
52396;SDS011;38322;53.108;6.308;2023-02-23T18:31:52;12.00;;;2.15;;
52396;SDS011;38322;53.108;6.308;2023-02-23T18:34:20;16.75;;;3.70;;
52396;SDS011;38322;53.108;6.308;2023-02-23T18:36:47;10.77;;;4.03;;
52396;SDS011;38322;53.108;6.308;2023-02-23T18:39:13;16.67;;;2.47;;
52396;SDS011;38322;53.108;6.308;2023-02-23T18:41:39;15.70;;;2.40;;
52396;SDS011;38322;53.108;6.308;2023-02-23T18:44:07;12.52;;;2.28;;
52396;SDS011;38322;53.108;6.308;2023-02-23T18:46:35;11.85;;;3.25;;
52396;SDS011;38322;53.108;6.308;2023-02-23T18:49:02;20.45;;;2.63;;
52396;SDS011;38322;53.108;6.308;2023-02-23T18:51:30;10.25;;;2.05;;
52396;SDS011;38322;53.108;6.308;2023-02-23T18:53:57;15.82;;;3.28;;
52396;SDS011;38322;53.108;6.308;2023-02-23T18:56:24;10.18;;;2.53;;
52396;SDS011;38322;53.108;6.308;2023-02-23T18:58:53;14.88;;;3.28;;
52396;SDS011;38322;53.108;6.308;2023-02-23T19:01:22;17.08;;;3.33;;
52396;SDS011;38322;53.108;6.308;2023-02-23T19:03:51;15.50;;;4.43;;
52396;SDS011;38322;53.108;6.308;2023-02-23T19:06:18;19.08;;;3.10;;
52396;SDS011;38322;53.108;6.308;2023-02-23T19:08:48;23.13;;;3.80;;
52396;SDS011;38322;53.108;6.308;2023-02-23T19:11:22;17.13;;;4.68;;
52396;SDS011;38322;53.108;6.308;2023-02-23T19:13:50;19.48;;;3.45;;
52396;SDS011;38322;53.108;6.308;2023-02-23T19:16:18;15.23;;;4.50;;
52396;SDS011;38322;53.108;6.308;2023-02-23T19:18:44;16.10;;;4.32;;
52396;SDS011;38322;53.108;6.308;2023-02-23T19:21:13;17.75;;;5.28;;
52396;SDS011;38322;53.108;6.308;2023-02-23T19:23:40;12.82;;;3.95;;
52396;SDS011;38322;53.108;6.308;2023-02-23T19:26:06;14.70;;;3.50;;
52396;SDS011;38322;53.108;6.308;2023-02-23T19:28:32;26.45;;;5.78;;
52396;SDS011;38322;53.108;6.308;2023-02-23T19:30:59;16.30;;;3.13;;
52396;SDS011;38322;53.108;6.308;2023-02-23T19:35:56;15.57;;;3.55;;
52396;SDS011;38322;53.108;6.308;2023-02-23T19:38:25;13.68;;;2.47;;
52396;SDS011;38322;53.108;6.308;2023-02-23T19:40:52;16.15;;;4.35;;
52396;SDS011;38322;53.108;6.308;2023-02-23T19:43:18;7.53;;;2.53;;
52396;SDS011;38322;53.108;6.308;2023-02-23T19:45:44;12.70;;;3.38;;
52396;SDS011;38322;53.108;6.308;2023-02-23T19:48:12;19.00;;;3.75;;
52396;SDS011;38322;53.108;6.308;2023-02-23T19:50:43;16.48;;;3.95;;
52396;SDS011;38322;53.108;6.308;2023-02-23T19:53:11;10.82;;;3.35;;
52396;SDS011;38322;53.108;6.308;2023-02-23T19:55:38;16.55;;;3.42;;
52396;SDS011;38322;53.108;6.308;2023-02-23T19:58:06;17.88;;;2.28;;
52396;SDS011;38322;53.108;6.308;2023-02-23T20:00:32;18.75;;;3.22;;
52396;SDS011;38322;53.108;6.308;2023-02-23T20:02:59;11.00;;;1.95;;
52396;SDS011;38322;53.108;6.308;2023-02-23T20:05:30;10.18;;;1.65;;
52396;SDS011;38322;53.108;6.308;2023-02-23T20:07:58;9.35;;;1.80;;
52396;SDS011;38322;53.108;6.308;2023-02-23T20:10:24;14.43;;;2.70;;
52396;SDS011;38322;53.108;6.308;2023-02-23T20:12:53;13.38;;;3.97;;
52396;SDS011;38322;53.108;6.308;2023-02-23T20:15:20;10.45;;;1.33;;
52396;SDS011;38322;53.108;6.308;2023-02-23T20:17:46;11.07;;;1.98;;
52396;SDS011;38322;53.108;6.308;2023-02-23T20:20:12;12.38;;;2.05;;
52396;SDS011;38322;53.108;6.308;2023-02-23T20:22:39;11.73;;;4.00;;
52396;SDS011;38322;53.108;6.308;2023-02-23T20:25:06;7.43;;;1.92;;
52396;SDS011;38322;53.108;6.308;2023-02-23T20:27:34;16.55;;;2.90;;
52396;SDS011;38322;53.108;6.308;2023-02-23T20:30:00;15.38;;;3.10;;
52396;SDS011;38322;53.108;6.308;2023-02-23T20:32:26;20.50;;;3.58;;
52396;SDS011;38322;53.108;6.308;2023-02-23T20:34:52;11.98;;;3.42;;
52396;SDS011;38322;53.108;6.308;2023-02-23T20:37:18;19.15;;;3.17;;
52396;SDS011;38322;53.108;6.308;2023-02-23T20:39:44;12.25;;;2.60;;
52396;SDS011;38322;53.108;6.308;2023-02-23T20:42:10;13.40;;;3.85;;
52396;SDS011;38322;53.108;6.308;2023-02-23T20:44:36;25.20;;;5.43;;
52396;SDS011;38322;53.108;6.308;2023-02-23T20:47:02;12.50;;;3.63;;
52396;SDS011;38322;53.108;6.308;2023-02-23T20:49:33;10.80;;;2.95;;
52396;SDS011;38322;53.108;6.308;2023-02-23T20:51:58;15.60;;;3.67;;
52396;SDS011;38322;53.108;6.308;2023-02-23T20:54:25;17.90;;;5.45;;
52396;SDS011;38322;53.108;6.308;2023-02-23T20:56:52;11.40;;;2.05;;
52396;SDS011;38322;53.108;6.308;2023-02-23T20:59:23;13.75;;;4.03;;
